sensor_id;sensor_type;location;lat;lon;timestamp;P1;durP1;ratioP1;P2;durP2;ratioP2
24381;SDS011;12502;50.678;7.172;2022-09-21T00:01:56;8.57;;;3.85;;
24381;SDS011;12502;50.678;7.172;2022-09-21T00:06:58;8.25;;;4.68;;
24381;SDS011;12502;50.678;7.172;2022-09-21T00:12:00;8.10;;;4.22;;
24381;SDS011;12502;50.678;7.172;2022-09-21T00:17:02;9.35;;;4.38;;
24381;SDS011;12502;50.678;7.172;2022-09-21T00:22:04;9.55;;;3.88;;
24381;SDS011;12502;50.678;7.172;2022-09-21T00:27:07;8.93;;;4.30;;
24381;SDS011;12502;50.678;7.172;2022-09-21T00:32:09;8.98;;;4.32;;
24381;SDS011;12502;50.678;7.172;2022-09-21T00:37:10;10.43;;;4.50;;
24381;SDS011;12502;50.678;7.172;2022-09-21T00:42:17;12.13;;;6.47;;
24381;SDS011;12502;50.678;7.172;2022-09-21T00:47:22;7.60;;;5.15;;
24381;SDS011;12502;50.678;7.172;2022-09-21T00:52:31;11.63;;;5.68;;
24381;SDS011;12502;50.678;7.172;2022-09-21T00:57:38;9.27;;;4.53;;
24381;SDS011;12502;50.678;7.172;2022-09-21T01:02:40;10.75;;;4.85;;
24381;SDS011;12502;50.678;7.172;2022-09-21T01:07:44;13.40;;;5.15;;
24381;SDS011;12502;50.678;7.172;2022-09-21T01:23:21;18.67;;;10.80;;
24381;SDS011;12502;50.678;7.172;2022-09-21T01:34:15;38.92;;;11.25;;
24381;SDS011;12502;50.678;7.172;2022-09-21T01:39:22;27.83;;;11.98;;
24381;SDS011;12502;50.678;7.172;2022-09-21T01:44:27;34.60;;;14.77;;
24381;SDS011;12502;50.678;7.172;2022-09-21T01:49:37;24.25;;;12.43;;
24381;SDS011;12502;50.678;7.172;2022-09-21T01:54:51;36.55;;;14.55;;
24381;SDS011;12502;50.678;7.172;2022-09-21T01:59:59;22.63;;;10.80;;
24381;SDS011;12502;50.678;7.172;2022-09-21T02:05:02;30.17;;;10.73;;
24381;SDS011;12502;50.678;7.172;2022-09-21T02:10:06;17.20;;;9.60;;
24381;SDS011;12502;50.678;7.172;2022-09-21T02:15:10;34.72;;;10.05;;
24381;SDS011;12502;50.678;7.172;2022-09-21T02:20:19;13.35;;;9.13;;
24381;SDS011;12502;50.678;7.172;2022-09-21T02:31:48;27.17;;;10.88;;
24381;SDS011;12502;50.678;7.172;2022-09-21T02:36:33;17.75;;;8.35;;
24381;SDS011;12502;50.678;7.172;2022-09-21T02:41:55;21.58;;;9.88;;
24381;SDS011;12502;50.678;7.172;2022-09-21T02:52:16;15.20;;;9.65;;
24381;SDS011;12502;50.678;7.172;2022-09-21T02:57:19;17.38;;;10.48;;
24381;SDS011;12502;50.678;7.172;2022-09-21T03:02:22;166.93;;;14.40;;
24381;SDS011;12502;50.678;7.172;2022-09-21T03:07:24;36.85;;;12.15;;
24381;SDS011;12502;50.678;7.172;2022-09-21T03:12:26;20.95;;;11.80;;
24381;SDS011;12502;50.678;7.172;2022-09-21T03:17:29;46.33;;;12.23;;
24381;SDS011;12502;50.678;7.172;2022-09-21T03:22:31;16.55;;;10.50;;
24381;SDS011;12502;50.678;7.172;2022-09-21T03:27:33;45.13;;;13.30;;
24381;SDS011;12502;50.678;7.172;2022-09-21T03:32:35;31.50;;;13.85;;
24381;SDS011;12502;50.678;7.172;2022-09-21T03:37:36;31.20;;;12.02;;
24381;SDS011;12502;50.678;7.172;2022-09-21T03:42:41;63.00;;;15.95;;
24381;SDS011;12502;50.678;7.172;2022-09-21T03:47:43;46.47;;;15.55;;
24381;SDS011;12502;50.678;7.172;2022-09-21T03:52:45;122.88;;;14.93;;
24381;SDS011;12502;50.678;7.172;2022-09-21T03:57:47;48.95;;;15.95;;
24381;SDS011;12502;50.678;7.172;2022-09-21T04:02:49;18.10;;;11.70;;
24381;SDS011;12502;50.678;7.172;2022-09-21T04:07:52;20.10;;;12.98;;
24381;SDS011;12502;50.678;7.172;2022-09-21T04:12:59;21.05;;;10.95;;
24381;SDS011;12502;50.678;7.172;2022-09-21T04:18:01;21.67;;;12.15;;
24381;SDS011;12502;50.678;7.172;2022-09-21T04:23:03;27.20;;;12.85;;
24381;SDS011;12502;50.678;7.172;2022-09-21T04:28:05;17.92;;;11.07;;
24381;SDS011;12502;50.678;7.172;2022-09-21T04:33:06;22.15;;;9.95;;
24381;SDS011;12502;50.678;7.172;2022-09-21T04:38:08;29.83;;;11.35;;
24381;SDS011;12502;50.678;7.172;2022-09-21T04:43:10;71.35;;;13.18;;
24381;SDS011;12502;50.678;7.172;2022-09-21T04:48:11;11.55;;;9.07;;
24381;SDS011;12502;50.678;7.172;2022-09-21T04:53:13;19.70;;;11.13;;
24381;SDS011;12502;50.678;7.172;2022-09-21T04:58:15;21.42;;;10.95;;
24381;SDS011;12502;50.678;7.172;2022-09-21T05:03:23;18.23;;;10.38;;
24381;SDS011;12502;50.678;7.172;2022-09-21T05:08:25;24.80;;;11.15;;
24381;SDS011;12502;50.678;7.172;2022-09-21T05:13:46;22.20;;;10.85;;
24381;SDS011;12502;50.678;7.172;2022-09-21T05:18:51;14.35;;;10.25;;
24381;SDS011;12502;50.678;7.172;2022-09-21T05:23:55;14.55;;;9.10;;
24381;SDS011;12502;50.678;7.172;2022-09-21T05:28:57;16.58;;;11.52;;
24381;SDS011;12502;50.678;7.172;2022-09-21T05:34:04;19.25;;;11.70;;
24381;SDS011;12502;50.678;7.172;2022-09-21T05:39:16;18.25;;;10.93;;
24381;SDS011;12502;50.678;7.172;2022-09-21T05:44:18;15.20;;;10.00;;
24381;SDS011;12502;50.678;7.172;2022-09-21T05:49:37;15.15;;;10.43;;
24381;SDS011;12502;50.678;7.172;2022-09-21T05:54:58;27.50;;;12.15;;
24381;SDS011;12502;50.678;7.172;2022-09-21T06:00:21;15.52;;;10.60;;
24381;SDS011;12502;50.678;7.172;2022-09-21T06:05:23;31.40;;;16.52;;
24381;SDS011;12502;50.678;7.172;2022-09-21T06:10:26;20.33;;;12.77;;
24381;SDS011;12502;50.678;7.172;2022-09-21T06:15:32;19.65;;;12.50;;
24381;SDS011;12502;50.678;7.172;2022-09-21T06:20:38;20.90;;;12.40;;
24381;SDS011;12502;50.678;7.172;2022-09-21T06:25:40;21.65;;;11.95;;
24381;SDS011;12502;50.678;7.172;2022-09-21T06:30:42;19.67;;;12.40;;
24381;SDS011;12502;50.678;7.172;2022-09-21T06:36:06;24.70;;;14.15;;
24381;SDS011;12502;50.678;7.172;2022-09-21T06:41:07;21.98;;;13.60;;
24381;SDS011;12502;50.678;7.172;2022-09-21T06:46:09;25.92;;;16.08;;
24381;SDS011;12502;50.678;7.172;2022-09-21T06:51:10;25.38;;;16.80;;
24381;SDS011;12502;50.678;7.172;2022-09-21T06:56:12;25.67;;;15.35;;
24381;SDS011;12502;50.678;7.172;2022-09-21T07:01:14;23.38;;;14.45;;
24381;SDS011;12502;50.678;7.172;2022-09-21T07:06:16;17.52;;;12.00;;
24381;SDS011;12502;50.678;7.172;2022-09-21T07:11:18;23.88;;;14.02;;
24381;SDS011;12502;50.678;7.172;2022-09-21T07:16:22;22.33;;;14.02;;
24381;SDS011;12502;50.678;7.172;2022-09-21T07:21:24;31.23;;;16.92;;
24381;SDS011;12502;50.678;7.172;2022-09-21T07:26:26;26.38;;;16.73;;
24381;SDS011;12502;50.678;7.172;2022-09-21T07:31:29;29.00;;;16.40;;
24381;SDS011;12502;50.678;7.172;2022-09-21T07:36:31;40.38;;;17.42;;
24381;SDS011;12502;50.678;7.172;2022-09-21T07:41:34;28.80;;;18.70;;
24381;SDS011;12502;50.678;7.172;2022-09-21T07:46:37;22.90;;;14.50;;
24381;SDS011;12502;50.678;7.172;2022-09-21T07:51:47;24.27;;;15.13;;
24381;SDS011;12502;50.678;7.172;2022-09-21T07:56:49;23.60;;;14.35;;
24381;SDS011;12502;50.678;7.172;2022-09-21T08:02:09;26.00;;;15.43;;
24381;SDS011;12502;50.678;7.172;2022-09-21T08:07:11;22.83;;;14.98;;
24381;SDS011;12502;50.678;7.172;2022-09-21T08:12:13;30.02;;;18.50;;
24381;SDS011;12502;50.678;7.172;2022-09-21T08:17:17;30.02;;;18.10;;
24381;SDS011;12502;50.678;7.172;2022-09-21T08:22:19;31.85;;;18.90;;
24381;SDS011;12502;50.678;7.172;2022-09-21T08:27:26;26.45;;;17.50;;
24381;SDS011;12502;50.678;7.172;2022-09-21T08:32:28;32.15;;;18.63;;
24381;SDS011;12502;50.678;7.172;2022-09-21T08:37:52;33.63;;;19.48;;
24381;SDS011;12502;50.678;7.172;2022-09-21T08:48:28;35.67;;;20.08;;
24381;SDS011;12502;50.678;7.172;2022-09-21T08:53:38;30.50;;;19.17;;
24381;SDS011;12502;50.678;7.172;2022-09-21T08:58:43;33.50;;;20.02;;
24381;SDS011;12502;50.678;7.172;2022-09-21T09:08:53;26.27;;;16.83;;
24381;SDS011;12502;50.678;7.172;2022-09-21T09:24:50;29.70;;;17.23;;
24381;SDS011;12502;50.678;7.172;2022-09-21T09:35:43;24.02;;;16.23;;
24381;SDS011;12502;50.678;7.172;2022-09-21T09:46:05;20.83;;;14.52;;
24381;SDS011;12502;50.678;7.172;2022-09-21T09:51:20;18.50;;;13.43;;
24381;SDS011;12502;50.678;7.172;2022-09-21T09:56:23;17.63;;;13.50;;
24381;SDS011;12502;50.678;7.172;2022-09-21T10:07:02;20.58;;;12.23;;
24381;SDS011;12502;50.678;7.172;2022-09-21T10:17:18;12.87;;;8.90;;
24381;SDS011;12502;50.678;7.172;2022-09-21T10:22:20;10.27;;;7.43;;
24381;SDS011;12502;50.678;7.172;2022-09-21T10:27:30;12.60;;;6.07;;
24381;SDS011;12502;50.678;7.172;2022-09-21T10:32:34;13.75;;;6.90;;
24381;SDS011;12502;50.678;7.172;2022-09-21T10:37:41;9.27;;;4.22;;
24381;SDS011;12502;50.678;7.172;2022-09-21T10:42:45;5.18;;;2.97;;
24381;SDS011;12502;50.678;7.172;2022-09-21T10:58:10;3.80;;;2.17;;
24381;SDS011;12502;50.678;7.172;2022-09-21T11:14:46;6.63;;;3.28;;
24381;SDS011;12502;50.678;7.172;2022-09-21T11:19:40;3.97;;;3.20;;
24381;SDS011;12502;50.678;7.172;2022-09-21T11:25:22;7.78;;;2.88;;
24381;SDS011;12502;50.678;7.172;2022-09-21T11:30:47;5.28;;;2.90;;
24381;SDS011;12502;50.678;7.172;2022-09-21T11:41:17;3.78;;;2.60;;
24381;SDS011;12502;50.678;7.172;2022-09-21T11:46:34;7.20;;;3.15;;
24381;SDS011;12502;50.678;7.172;2022-09-21T12:19:06;5.30;;;1.35;;
24381;SDS011;12502;50.678;7.172;2022-09-21T12:24:19;3.05;;;1.00;;
24381;SDS011;12502;50.678;7.172;2022-09-21T12:29:29;6.65;;;1.00;;
24381;SDS011;12502;50.678;7.172;2022-09-21T12:34:44;2.05;;;0.98;;
24381;SDS011;12502;50.678;7.172;2022-09-21T12:39:52;3.47;;;0.95;;
24381;SDS011;12502;50.678;7.172;2022-09-21T12:45:14;4.13;;;0.85;;
24381;SDS011;12502;50.678;7.172;2022-09-21T12:50:38;4.18;;;0.98;;
24381;SDS011;12502;50.678;7.172;2022-09-21T13:01:21;2.17;;;1.00;;
24381;SDS011;12502;50.678;7.172;2022-09-21T13:17:19;4.30;;;1.00;;
24381;SDS011;12502;50.678;7.172;2022-09-21T13:22:24;4.15;;;1.02;;
24381;SDS011;12502;50.678;7.172;2022-09-21T13:33:01;2.28;;;0.70;;
24381;SDS011;12502;50.678;7.172;2022-09-21T13:38:21;3.80;;;0.90;;
24381;SDS011;12502;50.678;7.172;2022-09-21T13:43:48;3.63;;;0.93;;
24381;SDS011;12502;50.678;7.172;2022-09-21T13:54:16;4.97;;;1.15;;
24381;SDS011;12502;50.678;7.172;2022-09-21T14:04:25;3.17;;;0.70;;
24381;SDS011;12502;50.678;7.172;2022-09-21T14:10:16;1.42;;;0.60;;
24381;SDS011;12502;50.678;7.172;2022-09-21T14:20:35;3.70;;;0.70;;
24381;SDS011;12502;50.678;7.172;2022-09-21T14:25:50;2.70;;;0.85;;
24381;SDS011;12502;50.678;7.172;2022-09-21T14:30:54;2.83;;;0.83;;
24381;SDS011;12502;50.678;7.172;2022-09-21T14:36:05;2.72;;;0.52;;
24381;SDS011;12502;50.678;7.172;2022-09-21T14:41:08;1.08;;;0.80;;
24381;SDS011;12502;50.678;7.172;2022-09-21T14:46:28;3.05;;;0.60;;
24381;SDS011;12502;50.678;7.172;2022-09-21T15:08:49;2.83;;;0.90;;
24381;SDS011;12502;50.678;7.172;2022-09-21T15:19:35;2.38;;;0.95;;
24381;SDS011;12502;50.678;7.172;2022-09-21T15:24:46;2.07;;;0.70;;
24381;SDS011;12502;50.678;7.172;2022-09-21T15:29:51;0.73;;;0.60;;
24381;SDS011;12502;50.678;7.172;2022-09-21T15:35:03;4.10;;;0.90;;
24381;SDS011;12502;50.678;7.172;2022-09-21T15:40:30;1.27;;;0.60;;
24381;SDS011;12502;50.678;7.172;2022-09-21T15:45:57;1.45;;;0.55;;
24381;SDS011;12502;50.678;7.172;2022-09-21T15:51:44;3.58;;;0.90;;
24381;SDS011;12502;50.678;7.172;2022-09-21T15:56:31;2.22;;;0.80;;
24381;SDS011;12502;50.678;7.172;2022-09-21T16:01:42;4.80;;;0.70;;
24381;SDS011;12502;50.678;7.172;2022-09-21T16:06:58;0.65;;;0.57;;
24381;SDS011;12502;50.678;7.172;2022-09-21T16:12:50;1.83;;;0.80;;
24381;SDS011;12502;50.678;7.172;2022-09-21T16:17:27;1.30;;;0.73;;
24381;SDS011;12502;50.678;7.172;2022-09-21T16:22:36;2.22;;;0.77;;
24381;SDS011;12502;50.678;7.172;2022-09-21T16:27:51;4.97;;;1.10;;
24381;SDS011;12502;50.678;7.172;2022-09-21T16:32:57;2.67;;;1.30;;
24381;SDS011;12502;50.678;7.172;2022-09-21T16:37:59;4.40;;;1.13;;
24381;SDS011;12502;50.678;7.172;2022-09-21T16:43:01;3.70;;;0.85;;
24381;SDS011;12502;50.678;7.172;2022-09-21T16:48:05;2.80;;;0.90;;
24381;SDS011;12502;50.678;7.172;2022-09-21T16:53:08;1.98;;;1.10;;
24381;SDS011;12502;50.678;7.172;2022-09-21T16:58:10;2.70;;;1.45;;
24381;SDS011;12502;50.678;7.172;2022-09-21T17:03:12;6.18;;;1.50;;
24381;SDS011;12502;50.678;7.172;2022-09-21T17:08:14;4.03;;;1.48;;
24381;SDS011;12502;50.678;7.172;2022-09-21T17:13:16;1.65;;;1.10;;
24381;SDS011;12502;50.678;7.172;2022-09-21T17:18:22;2.97;;;1.27;;
24381;SDS011;12502;50.678;7.172;2022-09-21T17:23:24;2.15;;;1.33;;
24381;SDS011;12502;50.678;7.172;2022-09-21T17:28:32;3.30;;;1.50;;
24381;SDS011;12502;50.678;7.172;2022-09-21T17:33:35;4.93;;;1.60;;
24381;SDS011;12502;50.678;7.172;2022-09-21T17:38:37;5.50;;;1.50;;
24381;SDS011;12502;50.678;7.172;2022-09-21T17:43:43;2.67;;;1.60;;
24381;SDS011;12502;50.678;7.172;2022-09-21T17:48:55;5.18;;;1.98;;
24381;SDS011;12502;50.678;7.172;2022-09-21T17:53:57;3.33;;;2.15;;
24381;SDS011;12502;50.678;7.172;2022-09-21T17:58:59;5.05;;;2.20;;
24381;SDS011;12502;50.678;7.172;2022-09-21T18:04:03;5.17;;;1.97;;
24381;SDS011;12502;50.678;7.172;2022-09-21T18:09:05;4.95;;;2.17;;
24381;SDS011;12502;50.678;7.172;2022-09-21T18:14:11;7.13;;;2.42;;
24381;SDS011;12502;50.678;7.172;2022-09-21T18:19:38;4.70;;;2.50;;
24381;SDS011;12502;50.678;7.172;2022-09-21T18:24:46;9.13;;;3.45;;
24381;SDS011;12502;50.678;7.172;2022-09-21T18:29:48;7.07;;;3.90;;
24381;SDS011;12502;50.678;7.172;2022-09-21T18:35:00;7.10;;;3.55;;
24381;SDS011;12502;50.678;7.172;2022-09-21T18:46:18;8.15;;;3.72;;
24381;SDS011;12502;50.678;7.172;2022-09-21T18:56:35;6.32;;;3.72;;
24381;SDS011;12502;50.678;7.172;2022-09-21T19:01:38;10.57;;;4.20;;
24381;SDS011;12502;50.678;7.172;2022-09-21T19:28:32;8.57;;;4.13;;
24381;SDS011;12502;50.678;7.172;2022-09-21T19:33:38;7.55;;;3.92;;
24381;SDS011;12502;50.678;7.172;2022-09-21T19:38:55;8.88;;;4.38;;
24381;SDS011;12502;50.678;7.172;2022-09-21T19:44:11;7.05;;;4.20;;
24381;SDS011;12502;50.678;7.172;2022-09-21T19:49:35;8.25;;;4.22;;
24381;SDS011;12502;50.678;7.172;2022-09-21T19:54:49;7.78;;;4.05;;
24381;SDS011;12502;50.678;7.172;2022-09-21T20:00:13;6.90;;;3.40;;
24381;SDS011;12502;50.678;7.172;2022-09-21T20:05:19;5.68;;;3.35;;
24381;SDS011;12502;50.678;7.172;2022-09-21T20:10:58;4.38;;;3.22;;
24381;SDS011;12502;50.678;7.172;2022-09-21T20:21:39;6.18;;;3.40;;
24381;SDS011;12502;50.678;7.172;2022-09-21T20:26:44;11.13;;;4.07;;
24381;SDS011;12502;50.678;7.172;2022-09-21T20:31:51;8.02;;;4.20;;
24381;SDS011;12502;50.678;7.172;2022-09-21T20:36:53;6.97;;;4.05;;
24381;SDS011;12502;50.678;7.172;2022-09-21T20:41:55;6.25;;;3.90;;
24381;SDS011;12502;50.678;7.172;2022-09-21T20:46:58;8.50;;;4.10;;
24381;SDS011;12502;50.678;7.172;2022-09-21T20:52:00;6.18;;;3.72;;
24381;SDS011;12502;50.678;7.172;2022-09-21T20:57:02;6.88;;;4.30;;
24381;SDS011;12502;50.678;7.172;2022-09-21T21:02:04;6.15;;;4.00;;
24381;SDS011;12502;50.678;7.172;2022-09-21T21:07:07;7.38;;;4.22;;
24381;SDS011;12502;50.678;7.172;2022-09-21T21:12:10;4.43;;;3.80;;
24381;SDS011;12502;50.678;7.172;2022-09-21T21:17:12;5.93;;;3.97;;
24381;SDS011;12502;50.678;7.172;2022-09-21T21:22:14;6.90;;;3.95;;
24381;SDS011;12502;50.678;7.172;2022-09-21T21:27:17;7.55;;;3.90;;
24381;SDS011;12502;50.678;7.172;2022-09-21T21:32:23;8.35;;;4.55;;
24381;SDS011;12502;50.678;7.172;2022-09-21T21:37:26;4.70;;;4.00;;
24381;SDS011;12502;50.678;7.172;2022-09-21T21:42:29;9.05;;;4.20;;
24381;SDS011;12502;50.678;7.172;2022-09-21T21:47:30;5.70;;;4.05;;
24381;SDS011;12502;50.678;7.172;2022-09-21T21:52:40;6.28;;;3.90;;
24381;SDS011;12502;50.678;7.172;2022-09-21T21:57:45;5.40;;;4.13;;
24381;SDS011;12502;50.678;7.172;2022-09-21T22:02:46;7.78;;;4.00;;
24381;SDS011;12502;50.678;7.172;2022-09-21T22:07:48;8.75;;;4.25;;
24381;SDS011;12502;50.678;7.172;2022-09-21T22:12:50;5.97;;;3.72;;
24381;SDS011;12502;50.678;7.172;2022-09-21T22:17:52;8.52;;;3.88;;
24381;SDS011;12502;50.678;7.172;2022-09-21T22:22:53;10.25;;;4.38;;
24381;SDS011;12502;50.678;7.172;2022-09-21T22:27:55;6.72;;;3.30;;
24381;SDS011;12502;50.678;7.172;2022-09-21T22:32:57;5.85;;;3.70;;
24381;SDS011;12502;50.678;7.172;2022-09-21T22:37:59;10.13;;;3.88;;
24381;SDS011;12502;50.678;7.172;2022-09-21T22:43:01;6.25;;;4.00;;
24381;SDS011;12502;50.678;7.172;2022-09-21T22:48:03;7.25;;;3.95;;
24381;SDS011;12502;50.678;7.172;2022-09-21T22:53:04;7.55;;;4.60;;
24381;SDS011;12502;50.678;7.172;2022-09-21T22:58:06;8.35;;;3.67;;
24381;SDS011;12502;50.678;7.172;2022-09-21T23:03:08;7.25;;;3.92;;
24381;SDS011;12502;50.678;7.172;2022-09-21T23:08:10;7.38;;;4.05;;
24381;SDS011;12502;50.678;7.172;2022-09-21T23:13:12;6.03;;;4.13;;
24381;SDS011;12502;50.678;7.172;2022-09-21T23:18:16;6.40;;;4.00;;
24381;SDS011;12502;50.678;7.172;2022-09-21T23:23:18;6.82;;;3.92;;
24381;SDS011;12502;50.678;7.172;2022-09-21T23:28:19;6.68;;;3.42;;
24381;SDS011;12502;50.678;7.172;2022-09-21T23:33:21;7.65;;;3.60;;
24381;SDS011;12502;50.678;7.172;2022-09-21T23:38:23;5.95;;;3.63;;
24381;SDS011;12502;50.678;7.172;2022-09-21T23:43:24;6.47;;;3.55;;
24381;SDS011;12502;50.678;7.172;2022-09-21T23:48:26;5.72;;;3.90;;
24381;SDS011;12502;50.678;7.172;2022-09-21T23:53:28;7.90;;;4.10;;
24381;SDS011;12502;50.678;7.172;2022-09-21T23:58:31;7.57;;;3.80;;
